Time;durP1;ratioP1;P1;durP2;ratioP2;P2;SDS_P1;SDS_P2;PMS_P1;PMS_P2;Temp;Humidity;BMP_temperature;BMP_pressure;BME280_temperature;BME280_humidity;BME280_pressure;Samples;Min_cycle;Max_cycle;Signal;HPM_P1;HPM_P2
2021/07/16 00:01:25;;;;;;;;;9.75;7.75;;;;;23.36;49.40;101787.94;5063026;28;51211;-55
2021/07/16 00:03:50;;;;;;;;;10.25;8.50;;;;;23.34;49.25;101774.31;5068022;28;51130;-53
2021/07/16 00:06:17;;;;;;;;;13.50;10.25;;;;;23.35;49.42;101780.72;5062187;28;51055;-54
2021/07/16 00:08:42;;;;;;;;;8.25;7.50;;;;;23.34;49.12;101782.59;5057415;28;50977;-53
2021/07/16 00:11:08;;;;;;;;;10.50;10.50;;;;;23.33;49.44;101780.91;5070680;28;51110;-54
2021/07/16 00:13:33;;;;;;;;;7.50;7.50;;;;;23.32;48.95;101781.97;5066017;28;51038;-53
2021/07/16 00:15:58;;;;;;;;;12.25;9.75;;;;;23.32;49.29;101776.44;5059299;28;51235;-54
2021/07/16 00:18:24;;;;;;;;;11.25;9.75;;;;;23.30;49.49;101773.91;5057319;28;51722;-55
2021/07/16 00:20:50;;;;;;;;;9.25;8.25;;;;;23.30;49.15;101773.91;5073095;28;51186;-51
2021/07/16 00:23:16;;;;;;;;;11.75;7.50;;;;;23.30;49.66;101775.81;5071495;28;51113;-53
2021/07/16 00:25:41;;;;;;;;;8.75;8.75;;;;;23.29;49.62;101776.88;5059214;28;51026;-53
2021/07/16 00:28:09;;;;;;;;;10.00;8.75;;;;;23.28;49.31;101770.50;5068972;28;51090;-55
2021/07/16 00:30:36;;;;;;;;;12.50;8.25;;;;;23.28;49.48;101775.19;5067176;28;51449;-54
2021/07/16 00:33:05;;;;;;;;;10.25;9.50;;;;;23.28;49.33;101776.03;5063130;28;51048;-54
2021/07/16 00:35:30;;;;;;;;;10.50;7.75;;;;;23.27;49.28;101777.13;5065280;28;51214;-54
2021/07/16 00:37:56;;;;;;;;;10.00;10.00;;;;;23.26;49.62;101769.03;5061733;28;51118;-54
2021/07/16 00:40:22;;;;;;;;;9.25;8.25;;;;;23.26;49.25;101778.19;5056875;28;51017;-52
2021/07/16 00:42:47;;;;;;;;;10.50;10.25;;;;;23.25;49.45;101775.66;5065519;28;51156;-54
2021/07/16 00:45:14;;;;;;;;;9.75;9.00;;;;;23.25;49.50;101781.16;5056776;28;51265;-53
2021/07/16 00:47:41;;;;;;;;;10.50;9.00;;;;;23.25;49.27;101782.03;5059514;28;52729;-54
2021/07/16 00:50:10;;;;;;;;;11.50;9.25;;;;;23.24;49.69;101777.56;5063447;28;50987;-54
2021/07/16 00:52:36;;;;;;;;;8.00;7.75;;;;;23.24;49.49;101779.44;5066583;28;51075;-54
2021/07/16 00:55:07;;;;;;;;;9.75;9.75;;;;;23.23;49.37;101784.13;5074407;28;51069;-54
2021/07/16 00:57:33;;;;;;;;;12.50;10.00;;;;;23.22;49.38;101779.66;5043731;28;51281;-54
2021/07/16 01:00:00;;;;;;;;;10.25;10.00;;;;;23.22;49.38;101778.81;5064835;28;51144;-50
2021/07/16 01:02:26;;;;;;;;;8.75;8.75;;;;;23.23;49.56;101783.28;5065847;28;51059;-52
2021/07/16 01:04:52;;;;;;;;;10.50;10.50;;;;;23.22;49.80;101778.81;5057595;28;51247;-54
2021/07/16 01:07:18;;;;;;;;;10.25;9.25;;;;;23.21;49.42;101779.88;5075933;28;51864;-53
2021/07/16 01:09:45;;;;;;;;;13.50;11.00;;;;;23.21;49.48;101783.50;5057297;28;51239;-54
2021/07/16 01:12:11;;;;;;;;;10.00;9.00;;;;;23.20;49.79;101784.56;5067140;28;51005;-54
2021/07/16 01:14:36;;;;;;;;;12.00;11.00;;;;;23.20;49.71;101783.72;5057334;28;51240;-54
2021/07/16 01:17:02;;;;;;;;;10.25;8.50;;;;;23.19;49.42;101782.88;5062585;28;54496;-53
2021/07/16 01:19:40;;;;;;;;;10.00;10.00;;;;;23.18;49.69;101778.41;5064828;28;51212;-53
2021/07/16 01:22:08;;;;;;;;;10.00;10.00;;;;;23.19;49.58;101782.03;5067721;28;51043;-54
2021/07/16 01:24:34;;;;;;;;;12.00;8.25;;;;;23.18;49.66;101785.88;5076102;28;51091;-53
2021/07/16 01:27:00;;;;;;;;;8.25;8.25;;;;;23.17;49.54;101786.94;5076064;28;51057;-52
2021/07/16 01:29:25;;;;;;;;;7.00;6.75;;;;;23.17;49.76;101778.63;5057783;28;51462;-54
2021/07/16 01:31:51;;;;;;;;;11.25;9.75;;;;;23.16;49.60;101786.09;5065553;28;52205;-52
2021/07/16 01:34:19;;;;;;;;;10.75;10.75;;;;;23.17;49.50;101778.63;5065624;28;50910;-53
2021/07/16 01:36:44;;;;;;;;;10.00;8.75;;;;;23.16;49.69;101782.47;5063759;28;52355;-52
2021/07/16 01:39:10;;;;;;;;;9.00;9.00;;;;;23.16;49.30;101790.75;5069348;28;51136;-55
2021/07/16 01:41:35;;;;;;;;;10.75;8.75;;;;;23.15;49.48;101792.69;5057489;28;51136;-53
2021/07/16 01:44:01;;;;;;;;;10.25;9.25;;;;;23.15;49.37;101786.31;5071718;28;51475;-54
2021/07/16 01:46:27;;;;;;;;;6.50;6.50;;;;;23.15;49.54;101791.84;5057085;28;51876;-53
2021/07/16 01:48:52;;;;;;;;;6.25;4.50;;;;;23.14;49.72;101787.38;5067828;28;51348;-54
2021/07/16 01:51:18;;;;;;;;;9.25;8.50;;;;;23.13;50.03;101789.25;5056662;28;51059;-54
2021/07/16 01:53:44;;;;;;;;;10.75;9.00;;;;;23.13;49.57;101788.41;5062027;28;51163;-55
2021/07/16 01:56:09;;;;;;;;;11.75;9.50;;;;;23.13;49.43;101782.88;5064610;28;51346;-54
2021/07/16 01:58:35;;;;;;;;;9.00;7.00;;;;;23.11;49.58;101777.59;5057104;28;51160;-54
2021/07/16 02:01:00;;;;;;;;;8.25;8.25;;;;;23.12;49.88;101786.72;5057576;28;51629;-54
2021/07/16 02:03:26;;;;;;;;;11.75;6.50;;;;;23.11;49.88;101785.03;5064450;28;51218;-53
2021/07/16 02:05:51;;;;;;;;;8.75;8.50;;;;;23.11;49.44;101790.56;5061276;28;51872;-54
2021/07/16 02:08:22;;;;;;;;;9.75;7.00;;;;;23.10;50.05;101786.94;5055779;28;51049;-53
2021/07/16 02:10:53;;;;;;;;;10.00;7.00;;;;;23.11;49.50;101782.25;5057235;28;50982;-55
2021/07/16 02:13:19;;;;;;;;;6.50;6.00;;;;;;;;5057236;28;51191;-52
2021/07/16 02:15:46;;;;;;;;;6.25;6.25;;;;;23.08;50.14;101782.72;5066720;28;51968;-53
2021/07/16 02:18:12;;;;;;;;;9.75;7.25;;;;;23.08;49.79;101780.78;5073845;28;51225;-53
2021/07/16 02:20:39;;;;;;;;;7.50;7.00;;;;;23.08;50.22;101780.78;5074542;28;51146;-54
2021/07/16 02:23:08;;;;;;;;;7.75;7.75;;;;;23.08;49.92;101778.03;5074915;28;50953;-54
2021/07/16 02:25:33;;;;;;;;;7.25;7.00;;;;;23.07;49.72;101778.25;5069519;28;52890;-52
2021/07/16 02:28:03;;;;;;;;;7.25;6.50;;;;;23.07;49.93;101769.97;5070027;28;51116;-54
2021/07/16 02:30:28;;;;;;;;;7.25;7.25;;;;;23.06;50.22;101774.63;5055470;28;51271;-53
2021/07/16 02:32:55;;;;;;;;;7.75;5.25;;;;;23.06;49.72;101771.88;5071810;28;51130;-53
2021/07/16 02:35:21;;;;;;;;;6.00;6.00;;;;;23.06;49.80;101771.88;5058309;28;50983;-52
2021/07/16 02:37:46;;;;;;;;;7.00;7.00;;;;;23.06;50.07;101774.63;5056031;28;50894;-54
2021/07/16 02:40:14;;;;;;;;;9.50;7.00;;;;;23.04;49.88;101774.88;5061313;28;51097;-54
2021/07/16 02:42:39;;;;;;;;;7.25;5.25;;;;;23.04;50.08;101771.25;5070264;28;51204;-53
2021/07/16 02:45:07;;;;;;;;;8.50;7.00;;;;;23.06;50.00;101771.03;5059916;28;51149;-54
2021/07/16 02:47:33;;;;;;;;;11.25;9.50;;;;;23.04;50.26;101780.38;5070467;28;51090;-53
2021/07/16 02:49:59;;;;;;;;;7.50;6.50;;;;;23.04;50.03;101782.31;5066812;28;50990;-54
2021/07/16 02:52:24;;;;;;;;;8.50;7.00;;;;;23.03;49.96;101778.69;5063731;28;51038;-53
2021/07/16 02:54:50;;;;;;;;;9.00;7.50;;;;;23.03;50.18;101772.28;5064640;28;51768;-53
2021/07/16 02:57:15;;;;;;;;;6.50;6.50;;;;;23.03;50.23;101775.94;5077934;28;51250;-52
2021/07/16 02:59:40;;;;;;;;;6.00;6.00;;;;;23.03;50.17;101783.34;5069583;28;51057;-53
2021/07/16 03:02:08;;;;;;;;;8.00;8.00;;;;;23.02;50.28;101776.97;5063892;28;51337;-52
2021/07/16 03:04:33;;;;;;;;;8.25;7.00;;;;;23.03;50.58;101780.56;5068023;28;52205;-53
2021/07/16 03:06:59;;;;;;;;;7.00;6.00;;;;;23.03;50.62;101783.34;5071411;28;51071;-51
2021/07/16 03:09:24;;;;;;;;;6.25;6.25;;;;;23.02;50.51;101779.72;5060727;28;51048;-52
2021/07/16 03:11:49;;;;;;;;;4.00;4.00;;;;;23.02;50.71;101774.19;5071791;28;51154;-52
2021/07/16 03:14:15;;;;;;;;;6.00;6.00;;;;;23.02;50.70;101779.72;5073318;28;59613;-53
2021/07/16 03:16:40;;;;;;;;;8.75;6.50;;;;;23.02;50.26;101781.66;5058684;28;51051;-53
2021/07/16 03:19:05;;;;;;;;;6.00;6.00;;;;;23.01;50.07;101778.03;5076549;28;51607;-51
2021/07/16 03:21:34;;;;;;;;;9.00;9.00;;;;;23.02;50.45;101776.97;5060195;28;51389;-52
2021/07/16 03:24:00;;;;;;;;;4.25;4.25;;;;;23.02;50.28;101781.66;5059586;28;51948;-50
2021/07/16 03:26:25;;;;;;;;;7.00;7.00;;;;;23.02;50.52;101788.03;5058230;28;51298;-53
2021/07/16 03:28:50;;;;;;;;;5.50;5.50;;;;;23.01;50.51;101791.00;5067201;28;51140;-53
2021/07/16 03:31:16;;;;;;;;;5.25;5.25;;;;;23.01;50.48;101791.84;5058401;28;51025;-54
2021/07/16 03:33:41;;;;;;;;;7.00;6.75;;;;;23.00;50.85;101790.16;5071505;28;51878;-55
2021/07/16 03:36:07;;;;;;;;;7.00;5.50;;;;;23.01;50.43;101786.31;5063261;28;51048;-51
2021/07/16 03:38:33;;;;;;;;;7.00;6.25;;;;;23.01;50.71;101789.09;5066961;28;50982;-51
2021/07/16 03:41:00;;;;;;;;;4.75;4.75;;;;;23.01;50.96;101797.38;5060939;28;51151;-53
2021/07/16 03:43:25;;;;;;;;;6.50;4.25;;;;;23.00;50.51;101792.91;5069181;28;51905;-54
2021/07/16 03:45:51;;;;;;;;;6.00;6.00;;;;;23.00;50.84;101797.59;5077095;28;51055;-54
2021/07/16 03:48:17;;;;;;;;;5.75;4.50;;;;;23.00;50.89;101790.16;5074103;28;51067;-54
2021/07/16 03:50:42;;;;;;;;;7.50;5.00;;;;;23.01;50.72;101791.00;5070149;28;51221;-52
2021/07/16 03:53:08;;;;;;;;;5.75;5.00;;;;;23.00;50.94;101794.84;5067066;28;51731;-53
2021/07/16 03:55:33;;;;;;;;;5.50;4.75;;;;;22.99;50.42;101788.47;5065554;28;50929;-51
2021/07/16 03:57:59;;;;;;;;;6.00;3.00;;;;;23.00;50.30;101792.91;5057874;28;51056;-53
2021/07/16 04:00:29;;;;;;;;;7.00;5.00;;;;;22.99;50.89;101785.69;5074051;28;51467;-51
2021/07/16 04:02:58;;;;;;;;;6.25;6.25;;;;;22.99;50.57;101788.47;5060321;28;51980;-52
2021/07/16 04:05:24;;;;;;;;;6.50;4.75;;;;;22.98;50.53;101789.53;5076890;28;51276;-50
2021/07/16 04:07:51;;;;;;;;;5.50;5.50;;;;;22.99;50.69;101777.41;5076449;28;51132;-52
2021/07/16 04:10:22;;;;;;;;;4.50;4.50;;;;;22.98;50.47;101781.25;5059938;28;50898;-51
2021/07/16 04:13:05;;;;;;;;;4.50;4.50;;;;;22.98;50.69;101783.16;5076899;28;51818;-49
2021/07/16 04:15:30;;;;;;;;;5.75;5.25;;;;;22.97;50.52;101787.84;5064676;28;51289;-52
2021/07/16 04:17:58;;;;;;;;;4.25;4.25;;;;;22.97;50.54;101781.47;5058682;28;51114;-52
2021/07/16 04:20:26;;;;;;;;;8.50;7.00;;;;;22.96;50.54;101788.91;5074902;28;51174;-52
2021/07/16 04:22:51;;;;;;;;;6.25;5.25;;;;;22.96;51.15;101791.66;5057069;28;51007;-51
2021/07/16 04:25:18;;;;;;;;;5.25;5.25;;;;;22.96;51.20;101788.06;5058304;28;50938;-49
2021/07/16 04:27:45;;;;;;;;;6.00;4.25;;;;;22.96;50.67;101790.81;5071516;28;51111;-53
2021/07/16 04:30:11;;;;;;;;;4.25;3.75;;;;;22.95;50.74;101795.50;5060067;28;51223;-50
2021/07/16 04:32:38;;;;;;;;;4.00;3.00;;;;;22.95;50.62;101801.03;5075719;28;51105;-54
2021/07/16 04:35:04;;;;;;;;;6.25;3.75;;;;;22.95;50.65;101795.50;5060465;28;51444;-50
2021/07/16 04:37:29;;;;;;;;;5.25;4.25;;;;;22.95;51.39;101806.56;5057179;28;51201;-52
2021/07/16 04:39:56;;;;;;;;;4.75;4.00;;;;;22.95;51.01;101806.56;5071742;28;51051;-51
2021/07/16 04:42:21;;;;;;;;;6.25;3.00;;;;;22.96;51.22;101799.09;5059804;28;51120;-51
2021/07/16 04:44:47;;;;;;;;;6.50;5.00;;;;;22.94;51.25;101810.38;5067531;28;51169;-49
2021/07/16 04:47:12;;;;;;;;;4.75;4.75;;;;;22.95;51.21;101814.84;5061758;28;51086;-51
2021/07/16 04:49:38;;;;;;;;;4.00;4.00;;;;;22.94;50.93;101802.09;5066519;28;50952;-51
2021/07/16 04:52:03;;;;;;;;;5.25;5.00;;;;;22.93;51.44;101803.16;5062363;28;51978;-51
2021/07/16 04:54:29;;;;;;;;;7.25;5.00;;;;;22.94;51.36;101806.78;5065372;28;51006;-53
2021/07/16 04:56:54;;;;;;;;;5.00;4.00;;;;;22.93;51.27;101808.69;5075374;28;51220;-51
2021/07/16 04:59:20;;;;;;;;;4.50;4.00;;;;;22.93;51.10;101805.06;5063384;28;50977;-52
2021/07/16 05:01:45;;;;;;;;;5.50;4.00;;;;;22.93;51.57;101811.44;5062442;28;51085;-51
2021/07/16 05:04:10;;;;;;;;;5.00;3.75;;;;;22.92;51.49;101812.47;5062547;28;51063;-52
2021/07/16 05:06:36;;;;;;;;;5.50;3.25;;;;;22.92;50.97;101818.00;5073713;28;51719;-53
2021/07/16 05:09:02;;;;;;;;;8.25;5.00;;;;;22.92;51.60;101815.25;5060349;28;51307;-53
2021/07/16 05:11:27;;;;;;;;;7.00;4.50;;;;;22.92;51.02;101808.88;5056553;28;51312;-53
2021/07/16 05:13:52;;;;;;;;;8.00;4.50;;;;;22.92;51.27;101809.72;5062798;28;51068;-52
2021/07/16 05:16:18;;;;;;;;;6.50;5.00;;;;;22.92;51.64;101803.34;5056269;28;51130;-53
2021/07/16 05:18:44;;;;;;;;;4.75;4.75;;;;;22.92;51.14;101809.72;5058329;28;51141;-53
2021/07/16 05:21:11;;;;;;;;;5.25;3.25;;;;;22.91;51.61;101805.25;5057127;28;51621;-50
2021/07/16 05:23:37;;;;;;;;;7.00;5.75;;;;;22.91;51.12;101821.84;5065930;28;51017;-55
2021/07/16 05:26:03;;;;;;;;;4.25;4.25;;;;;22.92;51.69;101817.16;5076405;28;51199;-49
2021/07/16 05:28:28;;;;;;;;;5.25;5.00;;;;;22.91;51.50;101819.06;5067258;28;51083;-51
2021/07/16 05:30:54;;;;;;;;;4.00;4.00;;;;;22.91;51.62;101821.84;5056117;28;51758;-52
2021/07/16 05:33:19;;;;;;;;;7.00;4.25;;;;;22.91;51.55;101827.38;5063625;28;51049;-54
2021/07/16 05:35:45;;;;;;;;;4.00;4.00;;;;;22.90;51.58;101822.06;5061928;28;51373;-53
2021/07/16 05:38:11;;;;;;;;;4.50;4.00;;;;;22.90;51.08;101822.91;5056530;28;51279;-52
2021/07/16 05:40:37;;;;;;;;;6.25;4.00;;;;;22.89;51.32;101821.22;5074390;28;51364;-52
2021/07/16 05:43:10;;;;;;;;;7.75;7.50;;;;;22.90;51.37;101820.16;5068239;28;51327;-53
2021/07/16 05:45:37;;;;;;;;;6.25;5.75;;;;;22.89;51.74;101818.44;5059216;28;51294;-53
2021/07/16 05:48:04;;;;;;;;;4.00;4.00;;;;;22.89;51.55;101826.75;5075527;28;51271;-52
2021/07/16 05:50:29;;;;;;;;;5.75;5.75;;;;;22.89;51.10;101825.91;5058290;28;51861;-52
2021/07/16 05:52:55;;;;;;;;;4.75;4.75;;;;;22.89;51.41;101825.91;5042534;28;51097;-55
2021/07/16 05:55:21;;;;;;;;;5.00;4.50;;;;;22.89;51.21;101835.03;5075618;28;51315;-53
2021/07/16 05:57:47;;;;;;;;;5.75;4.25;;;;;22.89;51.48;101837.78;5076109;28;51091;-53
2021/07/16 06:00:13;;;;;;;;;9.25;5.00;;;;;22.89;51.58;101848.00;5067592;28;52071;-55
2021/07/16 06:02:39;;;;;;;;;8.25;6.00;;;;;22.88;51.64;101840.78;5074710;28;51441;-51
2021/07/16 06:05:05;;;;;;;;;4.75;4.00;;;;;22.88;51.06;101844.38;5073342;28;51221;-53
2021/07/16 06:07:30;;;;;;;;;4.50;3.75;;;;;22.87;51.73;101845.44;5037960;28;51115;-55
2021/07/16 06:09:55;;;;;;;;;4.50;4.50;;;;;22.86;51.81;101843.75;5071350;28;51122;-53
2021/07/16 06:12:22;;;;;;;;;5.00;3.75;;;;;22.88;51.30;101844.38;5075577;28;51061;-53
2021/07/16 06:14:54;;;;;;;;;5.75;5.00;;;;;22.87;51.77;101856.50;5073712;28;51206;-51
2021/07/16 06:17:19;;;;;;;;;6.25;4.50;;;;;22.85;51.58;101847.59;5055673;28;51120;-54
2021/07/16 06:19:44;;;;;;;;;5.50;4.75;;;;;22.87;51.79;101856.50;5066769;28;51197;-51
2021/07/16 06:22:09;;;;;;;;;4.00;4.00;;;;;22.86;51.24;101854.81;5074947;28;50970;-48
2021/07/16 06:24:35;;;;;;;;;5.75;4.00;;;;;22.87;51.89;101855.66;5066053;28;51325;-53
2021/07/16 06:27:00;;;;;;;;;3.50;3.50;;;;;22.87;51.26;101859.25;5075061;28;51286;-49
2021/07/16 06:29:26;;;;;;;;;5.00;5.00;;;;;22.87;51.42;101855.66;5068683;28;51112;-47
2021/07/16 06:31:51;;;;;;;;;4.75;4.00;;;;;22.87;51.48;101862.03;5068311;28;51020;-50
2021/07/16 06:34:16;;;;;;;;;4.00;4.00;;;;;22.88;51.18;101873.94;5063410;28;51015;-49
2021/07/16 06:36:42;;;;;;;;;2.75;2.75;;;;;22.87;51.79;101878.59;5062690;28;51132;-49
2021/07/16 06:39:09;;;;;;;;;6.00;4.00;;;;;22.87;51.37;101883.28;5062255;28;53972;-52
2021/07/16 06:41:34;;;;;;;;;3.25;3.25;;;;;22.87;51.39;101875.84;5076547;28;51064;-52
2021/07/16 06:43:59;;;;;;;;;5.50;4.00;;;;;22.88;51.42;101884.97;5076090;28;52706;-50
2021/07/16 06:46:25;;;;;;;;;4.25;3.75;;;;;22.87;51.42;101878.59;5071323;28;51100;-52
2021/07/16 06:48:50;;;;;;;;;3.00;2.75;;;;;22.87;51.77;101878.59;5077157;28;51121;-51
2021/07/16 06:51:17;;;;;;;;;4.25;3.50;;;;;22.86;51.75;101882.44;5073596;28;51154;-48
2021/07/16 06:53:43;;;;;;;;;4.00;2.75;;;;;22.85;51.86;101886.25;5080421;28;51226;-51
2021/07/16 06:56:08;;;;;;;;;2.75;2.00;;;;;22.86;51.72;101887.97;5062124;28;50940;-48
2021/07/16 06:58:33;;;;;;;;;3.50;3.00;;;;;22.87;51.75;101881.38;5071017;28;51117;-52
2021/07/16 07:00:58;;;;;;;;;3.25;3.25;;;;;22.86;51.39;101887.09;5077396;28;50989;-47
2021/07/16 07:03:25;;;;;;;;;4.75;3.25;;;;;22.88;51.46;101896.03;5076187;28;51156;-51
2021/07/16 07:05:55;;;;;;;;;7.00;4.00;;;;;22.87;51.57;101897.09;5070379;28;51260;-52
2021/07/16 07:08:20;;;;;;;;;4.50;3.25;;;;;22.86;51.80;101892.63;5067176;28;51393;-55
2021/07/16 07:10:46;;;;;;;;;2.75;2.75;;;;;22.86;51.63;101904.53;5074915;28;51272;-52
2021/07/16 07:13:12;;;;;;;;;3.00;3.00;;;;;22.87;51.38;101903.47;5071136;28;51042;-51
2021/07/16 07:15:37;;;;;;;;;2.00;2.00;;;;;22.87;51.96;101905.38;5065858;28;51267;-49
2021/07/16 07:18:04;;;;;;;;;6.50;4.00;;;;;22.89;51.75;101911.53;5070867;28;51950;-57
2021/07/16 07:20:30;;;;;;;;;3.50;3.00;;;;;22.89;52.09;101915.16;5079071;28;51416;-53
2021/07/16 07:22:56;;;;;;;;;3.50;3.50;;;;;22.91;51.88;101903.88;5071149;28;51182;-54
2021/07/16 07:25:22;;;;;;;;;4.25;2.25;;;;;22.92;51.75;101909.19;5071553;28;51347;-56
2021/07/16 07:27:47;;;;;;;;;2.50;2.00;;;;;22.92;51.96;101903.66;5073902;28;51158;-57
2021/07/16 07:30:13;;;;;;;;;5.00;3.50;;;;;22.94;52.27;101909.84;5071936;28;51057;-56
2021/07/16 07:32:39;;;;;;;;;4.00;2.50;;;;;22.96;52.07;101910.47;5061054;28;50994;-58
2021/07/16 07:35:07;;;;;;;;;6.50;3.75;;;;;22.97;52.74;101903.88;5075262;28;51016;-57
2021/07/16 07:37:32;;;;;;;;;2.75;2.00;;;;;22.98;52.07;101908.34;5073102;28;51741;-57
2021/07/16 07:39:57;;;;;;;;;5.50;4.50;;;;;23.00;52.46;101908.13;5071209;28;51253;-56
2021/07/16 07:42:25;;;;;;;;;3.75;2.00;;;;;23.01;52.24;101907.91;5068749;28;51532;-55
2021/07/16 07:44:51;;;;;;;;;3.00;3.00;;;;;23.03;52.33;101902.16;5069163;28;51389;-56
2021/07/16 07:47:16;;;;;;;;;2.00;2.00;;;;;23.03;51.82;101908.56;5067060;28;51698;-56
2021/07/16 07:49:42;;;;;;;;;4.00;3.00;;;;;23.04;52.46;101913.03;5062866;28;51058;-56
2021/07/16 07:52:07;;;;;;;;;2.25;2.00;;;;;23.04;52.22;101918.56;5067292;28;51130;-55
2021/07/16 07:54:34;;;;;;;;;2.00;2.00;;;;;23.06;52.11;101915.56;5066091;28;51112;-55
2021/07/16 07:57:00;;;;;;;;;4.00;2.00;;;;;23.06;52.23;101917.50;5073094;28;53403;-56
2021/07/16 07:59:25;;;;;;;;;3.25;3.25;;;;;23.08;51.76;101909.84;5062381;28;51424;-54
2021/07/16 08:01:50;;;;;;;;;4.00;3.00;;;;;23.08;52.18;101927.25;5062379;28;51172;-56
2021/07/16 08:04:17;;;;;;;;;2.25;2.00;;;;;23.08;51.88;101916.22;5065031;28;51105;-56
2021/07/16 08:06:43;;;;;;;;;3.00;3.00;;;;;23.10;52.29;101921.50;5071095;28;51235;-56
2021/07/16 08:09:08;;;;;;;;;2.25;1.25;;;;;23.10;51.90;101921.50;5068090;28;51161;-56
2021/07/16 08:11:33;;;;;;;;;2.75;2.25;;;;;23.10;52.00;101930.66;5069349;28;51067;-56
2021/07/16 08:13:59;;;;;;;;;3.00;2.00;;;;;23.12;51.80;101935.97;5067808;28;51143;-56
2021/07/16 08:16:25;;;;;;;;;2.50;1.50;;;;;23.13;51.59;101946.81;5069237;28;51788;-56
2021/07/16 08:18:50;;;;;;;;;1.75;1.75;;;;;23.12;51.45;101936.81;5069668;28;50988;-57
2021/07/16 08:21:16;;;;;;;;;3.00;1.00;;;;;23.12;51.76;101950.63;5069061;28;51319;-57
2021/07/16 08:23:41;;;;;;;;;7.00;4.00;;;;;23.14;52.60;101944.91;5062568;28;51095;-57
2021/07/16 08:26:06;;;;;;;;;2.75;1.25;;;;;23.15;52.38;101938.31;5071392;28;51920;-56
2021/07/16 08:28:32;;;;;;;;;4.25;2.00;;;;;23.15;52.63;101941.09;5072166;28;51219;-55
2021/07/16 08:30:58;;;;;;;;;5.25;4.50;;;;;23.16;52.85;101940.88;5067350;28;51103;-57
2021/07/16 08:33:23;;;;;;;;;3.00;3.00;;;;;23.18;52.89;101937.88;5069673;28;51305;-57
2021/07/16 08:35:49;;;;;;;;;7.50;2.75;;;;;23.18;52.92;101943.41;5072146;28;52264;-55
2021/07/16 08:38:14;;;;;;;;;2.50;2.00;;;;;23.17;52.70;101942.56;5063761;28;51321;-55
2021/07/16 08:40:40;;;;;;;;;2.25;2.25;;;;;23.20;52.95;101949.56;5058085;28;51119;-54
2021/07/16 08:43:06;;;;;;;;;1.75;1.75;;;;;23.20;52.58;101949.56;5071181;28;51156;-55
2021/07/16 08:45:31;;;;;;;;;2.00;2.00;;;;;23.20;52.01;101950.41;5073944;28;50963;-53
2021/07/16 08:47:57;;;;;;;;;3.00;2.00;;;;;23.20;52.71;101949.56;5075116;28;51127;-53
2021/07/16 08:50:23;;;;;;;;;4.50;2.25;;;;;23.21;52.73;101949.34;5070273;28;51012;-56
2021/07/16 08:52:49;;;;;;;;;2.25;1.75;;;;;23.23;52.37;101943.59;5066872;28;51267;-57
2021/07/16 08:55:18;;;;;;;;;3.00;1.50;;;;;23.22;52.43;101937.22;5062989;28;52892;-57
2021/07/16 08:57:43;;;;;;;;;2.75;1.75;;;;;23.23;52.09;101938.06;5056110;28;51374;-56
2021/07/16 09:00:13;;;;;;;;;4.00;2.25;;;;;23.23;51.86;101944.44;5062975;28;51271;-57
2021/07/16 09:02:57;;;;;;;;;3.00;2.00;;;;;23.24;51.94;101945.31;5072902;28;50981;-55
2021/07/16 09:05:37;;;;;;;;;1.50;1.00;;;;;23.24;51.74;101950.84;5067726;28;51335;-55
2021/07/16 09:08:04;;;;;;;;;4.00;1.00;;;;;23.23;51.87;101946.38;5063780;28;51497;-56
2021/07/16 09:10:30;;;;;;;;;0.50;0.50;;;;;23.23;51.60;101943.59;5055339;28;51084;-56
2021/07/16 09:13:03;;;;;;;;;1.25;1.00;;;;;23.23;51.75;101958.28;5056670;28;51135;-57
2021/07/16 09:15:29;;;;;;;;;1.25;1.25;;;;;23.24;51.66;101950.84;5056211;28;52942;-56
2021/07/16 09:18:12;;;;;;;;;2.50;2.00;;;;;23.26;51.31;101954.25;5056912;28;51170;-57
2021/07/16 09:20:37;;;;;;;;;0.50;0.50;;;;;23.25;51.59;101964.47;5074944;28;51026;-56
2021/07/16 09:23:12;;;;;;;;;2.00;2.00;;;;;23.26;51.65;101962.56;5057578;28;51365;-56
2021/07/16 09:25:38;;;;;;;;;2.00;1.25;;;;;23.25;51.64;101964.47;5056155;28;51975;-57
2021/07/16 09:28:04;;;;;;;;;1.00;1.00;;;;;23.27;51.73;101965.09;5056535;28;51376;-57
2021/07/16 09:30:31;;;;;;;;;2.25;1.50;;;;;23.26;51.37;101955.09;5074135;28;51094;-57
2021/07/16 09:33:06;;;;;;;;;1.25;1.00;;;;;23.27;51.14;101959.56;5066996;28;51308;-56
2021/07/16 09:35:39;;;;;;;;;2.00;2.00;;;;;23.28;51.62;101968.72;5055865;28;51696;-56
2021/07/16 09:38:12;;;;;;;;;2.00;2.00;;;;;23.29;51.41;101964.88;5070123;28;51016;-55
2021/07/16 09:40:53;;;;;;;;;1.75;1.00;;;;;23.30;51.09;101972.09;5072729;28;51005;-57
2021/07/16 09:43:21;;;;;;;;;2.00;1.00;;;;;23.29;50.82;101968.50;5051876;28;51348;-55
2021/07/16 09:46:06;;;;;;;;;1.50;1.50;;;;;23.30;51.17;101975.72;5072238;28;51131;-56
2021/07/16 09:48:34;;;;;;;;;0.50;0.50;;;;;23.30;51.22;101964.66;5067312;28;51435;-56
2021/07/16 09:51:13;;;;;;;;;3.75;3.00;;;;;23.31;51.19;101974.66;5057268;28;51228;-55
2021/07/16 09:53:40;;;;;;;;;1.00;1.00;;;;;23.31;50.99;101969.13;5065426;28;51131;-56
2021/07/16 09:56:10;;;;;;;;;1.75;1.75;;;;;23.33;51.35;101977.19;5059619;28;51055;-55
2021/07/16 09:58:36;;;;;;;;;1.50;1.50;;;;;23.33;51.05;101971.66;5070751;28;51033;-54
2021/07/16 10:01:01;;;;;;;;;2.50;1.00;;;;;23.33;51.37;101980.81;5063957;28;50922;-56
2021/07/16 10:03:28;;;;;;;;;3.00;3.00;;;;;23.33;51.29;101978.03;5061831;28;51748;-56
2021/07/16 10:05:54;;;;;;;;;2.00;2.00;;;;;23.33;50.88;101964.22;5057173;28;51963;-55
2021/07/16 10:08:20;;;;;;;;;3.00;2.00;;;;;23.34;51.14;101970.59;5071558;28;51725;-56
2021/07/16 10:10:47;;;;;;;;;2.25;0.75;;;;;23.35;51.28;101968.72;5072868;28;51092;-55
2021/07/16 10:13:13;;;;;;;;;1.00;1.00;;;;;23.35;51.34;101974.25;5056728;28;51407;-56
2021/07/16 10:15:42;;;;;;;;;2.00;2.00;;;;;23.36;51.17;101981.47;5053633;28;51121;-56
2021/07/16 10:18:08;;;;;;;;;2.00;2.00;;;;;23.36;50.81;101984.25;5064645;28;50976;-56
2021/07/16 10:20:38;;;;;;;;;2.75;2.75;;;;;23.36;51.19;101996.16;5068364;28;51052;-54
2021/07/16 10:23:05;;;;;;;;;1.75;1.75;;;;;23.36;51.30;101996.16;5054986;28;51270;-56
2021/07/16 10:25:30;;;;;;;;;2.75;2.75;;;;;23.35;51.38;101991.69;5071897;28;51085;-55
2021/07/16 10:27:56;;;;;;;;;1.75;1.00;;;;;23.35;51.36;101986.16;5062754;28;51073;-55
2021/07/16 10:30:23;;;;;;;;;1.25;1.25;;;;;23.36;51.16;102001.69;5054761;28;51311;-56
2021/07/16 10:32:51;;;;;;;;;1.75;1.75;;;;;23.37;51.53;101994.22;5064566;28;51778;-55
2021/07/16 10:35:38;;;;;;;;;4.75;3.75;;;;;23.37;51.16;101989.53;5069929;28;51168;-55
2021/07/16 10:38:25;;;;;;;;;3.75;2.00;;;;;23.38;50.84;101998.69;5047843;28;51293;-55
2021/07/16 10:40:51;;;;;;;;;4.75;3.25;;;;;23.37;51.07;101997.84;5039757;28;51108;-57
2021/07/16 10:43:22;;;;;;;;;2.00;2.00;;;;;23.38;51.61;102013.38;5066011;28;51821;-56
2021/07/16 10:45:48;;;;;;;;;3.00;2.00;;;;;23.38;51.05;102002.31;5057788;28;51145;-54
2021/07/16 10:48:14;;;;;;;;;2.00;2.00;;;;;23.39;51.24;102014.22;5059824;28;51199;-54
2021/07/16 10:50:42;;;;;;;;;3.25;2.25;;;;;23.39;51.16;102019.75;5068476;28;51207;-54
2021/07/16 10:53:14;;;;;;;;;3.25;2.00;;;;;23.40;51.47;102019.53;5068558;28;51082;-56
2021/07/16 10:55:39;;;;;;;;;3.00;3.00;;;;;23.41;51.82;102021.22;5058975;28;51835;-55
2021/07/16 10:58:27;;;;;;;;;3.50;3.50;;;;;23.42;51.52;102017.38;5061376;28;50985;-57
2021/07/16 11:00:55;;;;;;;;;3.50;3.25;;;;;23.44;51.48;102022.69;5061673;28;51371;-55
2021/07/16 11:03:23;;;;;;;;;3.50;2.75;;;;;23.44;51.41;102034.59;5059276;28;51123;-53
2021/07/16 11:05:49;;;;;;;;;5.00;5.00;;;;;23.43;51.29;102043.97;5068082;28;51319;-56
2021/07/16 11:08:34;;;;;;;;;5.75;4.50;;;;;23.45;51.31;102041.03;5066957;28;51224;-54
2021/07/16 11:11:19;;;;;;;;;5.50;5.50;;;;;23.44;51.43;102040.13;5059807;28;51187;-56
2021/07/16 11:13:54;;;;;;;;;7.00;5.25;;;;;23.44;51.48;102045.66;5067580;28;51149;-55
2021/07/16 11:16:27;;;;;;;;;9.00;9.00;;;;;23.45;51.65;102044.63;5066976;28;51284;-56
2021/07/16 11:18:59;;;;;;;;;42.25;33.75;;;;;23.46;51.78;102037.19;5070287;28;51293;-56
2021/07/16 11:21:54;;;;;;;;;53.50;43.00;;;;;23.47;51.65;102044.41;5068005;28;51017;-51
2021/07/16 11:24:30;;;;;;;;;44.25;34.75;;;;;23.48;51.38;102038.66;5057028;28;50955;-54